sensor_id;sensor_type;location;lat;lon;timestamp;temperature;humidity
71843;DHT22;59691;-36.632;-64.320;2023-02-26T00:02:18;28.60;42.70
71843;DHT22;59691;-36.632;-64.320;2023-02-26T00:04:45;28.60;42.70
71843;DHT22;59691;-36.632;-64.320;2023-02-26T00:07:11;28.50;42.70
71843;DHT22;59691;-36.632;-64.320;2023-02-26T00:09:38;28.50;42.70
71843;DHT22;59691;-36.632;-64.320;2023-02-26T00:12:04;28.50;42.70
71843;DHT22;59691;-36.632;-64.320;2023-02-26T00:14:31;28.50;42.80
71843;DHT22;59691;-36.632;-64.320;2023-02-26T00:17:05;28.50;42.80
71843;DHT22;59691;-36.632;-64.320;2023-02-26T00:19:33;28.50;42.80
71843;DHT22;59691;-36.632;-64.320;2023-02-26T00:22:00;28.50;42.80
71843;DHT22;59691;-36.632;-64.320;2023-02-26T00:24:26;28.50;42.80
71843;DHT22;59691;-36.632;-64.320;2023-02-26T00:26:53;28.40;42.80
71843;DHT22;59691;-36.632;-64.320;2023-02-26T00:29:20;28.40;42.80
71843;DHT22;59691;-36.632;-64.320;2023-02-26T00:31:46;28.40;42.80
71843;DHT22;59691;-36.632;-64.320;2023-02-26T00:34:13;28.40;42.90
71843;DHT22;59691;-36.632;-64.320;2023-02-26T00:39:34;28.40;42.90
71843;DHT22;59691;-36.632;-64.320;2023-02-26T00:42:02;28.40;42.90
71843;DHT22;59691;-36.632;-64.320;2023-02-26T00:44:28;28.40;42.90
71843;DHT22;59691;-36.632;-64.320;2023-02-26T00:46:59;28.40;43.00
71843;DHT22;59691;-36.632;-64.320;2023-02-26T00:52:14;28.30;43.00
71843;DHT22;59691;-36.632;-64.320;2023-02-26T00:54:43;28.30;43.00
71843;DHT22;59691;-36.632;-64.320;2023-02-26T00:57:09;28.30;43.00
71843;DHT22;59691;-36.632;-64.320;2023-02-26T00:59:35;28.30;43.00
71843;DHT22;59691;-36.632;-64.320;2023-02-26T01:02:02;28.30;43.00
71843;DHT22;59691;-36.632;-64.320;2023-02-26T01:04:28;28.30;43.00
71843;DHT22;59691;-36.632;-64.320;2023-02-26T01:06:56;28.30;43.00
71843;DHT22;59691;-36.632;-64.320;2023-02-26T01:11:50;28.20;43.00
71843;DHT22;59691;-36.632;-64.320;2023-02-26T01:14:17;28.20;43.10
71843;DHT22;59691;-36.632;-64.320;2023-02-26T01:16:49;28.20;43.10
71843;DHT22;59691;-36.632;-64.320;2023-02-26T01:21:48;28.20;43.10
71843;DHT22;59691;-36.632;-64.320;2023-02-26T01:24:16;28.20;43.10
71843;DHT22;59691;-36.632;-64.320;2023-02-26T01:26:44;28.20;43.10
71843;DHT22;59691;-36.632;-64.320;2023-02-26T01:29:12;28.10;43.10
71843;DHT22;59691;-36.632;-64.320;2023-02-26T01:34:18;28.10;43.10
71843;DHT22;59691;-36.632;-64.320;2023-02-26T01:36:48;28.10;43.10
71843;DHT22;59691;-36.632;-64.320;2023-02-26T01:39:52;28.10;43.10
71843;DHT22;59691;-36.632;-64.320;2023-02-26T01:42:27;28.10;43.10
71843;DHT22;59691;-36.632;-64.320;2023-02-26T01:44:58;28.10;43.10
71843;DHT22;59691;-36.632;-64.320;2023-02-26T01:49:52;28.10;43.20
71843;DHT22;59691;-36.632;-64.320;2023-02-26T01:54:57;28.00;43.20
71843;DHT22;59691;-36.632;-64.320;2023-02-26T01:57:23;28.00;43.20
71843;DHT22;59691;-36.632;-64.320;2023-02-26T01:59:50;28.00;43.20
71843;DHT22;59691;-36.632;-64.320;2023-02-26T02:02:18;28.00;43.20
71843;DHT22;59691;-36.632;-64.320;2023-02-26T02:04:45;27.90;43.20
71843;DHT22;59691;-36.632;-64.320;2023-02-26T02:07:13;27.90;43.30
71843;DHT22;59691;-36.632;-64.320;2023-02-26T02:09:39;27.90;43.30
71843;DHT22;59691;-36.632;-64.320;2023-02-26T02:22:39;27.80;43.20
71843;DHT22;59691;-36.632;-64.320;2023-02-26T02:30:47;27.70;43.20
71843;DHT22;59691;-36.632;-64.320;2023-02-26T02:33:15;27.70;43.20
71843;DHT22;59691;-36.632;-64.320;2023-02-26T02:41:06;27.70;43.10
71843;DHT22;59691;-36.632;-64.320;2023-02-26T02:43:33;27.70;43.10
71843;DHT22;59691;-36.632;-64.320;2023-02-26T02:46:04;27.60;43.10
71843;DHT22;59691;-36.632;-64.320;2023-02-26T02:48:32;27.60;43.10
71843;DHT22;59691;-36.632;-64.320;2023-02-26T02:51:01;27.60;43.10
71843;DHT22;59691;-36.632;-64.320;2023-02-26T02:53:33;27.60;43.00
71843;DHT22;59691;-36.632;-64.320;2023-02-26T02:56:03;27.60;43.00
71843;DHT22;59691;-36.632;-64.320;2023-02-26T02:58:33;27.60;43.00
71843;DHT22;59691;-36.632;-64.320;2023-02-26T03:01:02;27.50;43.00
71843;DHT22;59691;-36.632;-64.320;2023-02-26T03:03:37;27.50;42.90
71843;DHT22;59691;-36.632;-64.320;2023-02-26T03:06:05;27.50;43.00
71843;DHT22;59691;-36.632;-64.320;2023-02-26T03:08:35;27.50;43.00
71843;DHT22;59691;-36.632;-64.320;2023-02-26T03:11:02;27.50;42.90
71843;DHT22;59691;-36.632;-64.320;2023-02-26T03:13:28;27.40;42.80
71843;DHT22;59691;-36.632;-64.320;2023-02-26T03:18:51;27.40;42.80
71843;DHT22;59691;-36.632;-64.320;2023-02-26T03:24:03;27.30;42.70
71843;DHT22;59691;-36.632;-64.320;2023-02-26T03:29:27;27.30;42.70
71843;DHT22;59691;-36.632;-64.320;2023-02-26T03:32:09;27.30;42.60
71843;DHT22;59691;-36.632;-64.320;2023-02-26T03:34:39;27.30;42.60
71843;DHT22;59691;-36.632;-64.320;2023-02-26T03:37:19;27.30;42.60
71843;DHT22;59691;-36.632;-64.320;2023-02-26T03:39:53;27.30;42.60
71843;DHT22;59691;-36.632;-64.320;2023-02-26T03:42:33;27.30;42.60
71843;DHT22;59691;-36.632;-64.320;2023-02-26T03:45:08;27.20;42.50
71843;DHT22;59691;-36.632;-64.320;2023-02-26T03:47:36;27.20;42.50
71843;DHT22;59691;-36.632;-64.320;2023-02-26T03:50:06;27.20;42.50
71843;DHT22;59691;-36.632;-64.320;2023-02-26T03:52:34;27.20;42.50
71843;DHT22;59691;-36.632;-64.320;2023-02-26T03:55:18;27.20;42.50
71843;DHT22;59691;-36.632;-64.320;2023-02-26T03:57:46;27.20;42.50
71843;DHT22;59691;-36.632;-64.320;2023-02-26T04:00:14;27.10;42.40
71843;DHT22;59691;-36.632;-64.320;2023-02-26T04:05:28;27.10;42.40
71843;DHT22;59691;-36.632;-64.320;2023-02-26T04:07:56;27.10;42.30
71843;DHT22;59691;-36.632;-64.320;2023-02-26T04:10:57;27.10;42.30
71843;DHT22;59691;-36.632;-64.320;2023-02-26T04:13:15;27.00;42.30
71843;DHT22;59691;-36.632;-64.320;2023-02-26T04:15:42;27.00;42.30
71843;DHT22;59691;-36.632;-64.320;2023-02-26T04:18:08;27.00;42.20
71843;DHT22;59691;-36.632;-64.320;2023-02-26T04:20:34;27.00;42.20
71843;DHT22;59691;-36.632;-64.320;2023-02-26T04:23:01;27.00;42.20
71843;DHT22;59691;-36.632;-64.320;2023-02-26T04:25:27;27.00;42.20
71843;DHT22;59691;-36.632;-64.320;2023-02-26T04:27:54;26.90;42.20
71843;DHT22;59691;-36.632;-64.320;2023-02-26T04:32:47;26.90;42.10
71843;DHT22;59691;-36.632;-64.320;2023-02-26T04:35:13;26.90;42.10
71843;DHT22;59691;-36.632;-64.320;2023-02-26T04:37:40;26.90;42.10
71843;DHT22;59691;-36.632;-64.320;2023-02-26T04:40:06;26.90;42.10
71843;DHT22;59691;-36.632;-64.320;2023-02-26T04:42:33;26.90;42.10
71843;DHT22;59691;-36.632;-64.320;2023-02-26T04:44:59;26.90;42.10
71843;DHT22;59691;-36.632;-64.320;2023-02-26T04:47:26;26.80;42.00
71843;DHT22;59691;-36.632;-64.320;2023-02-26T04:49:52;26.80;42.00
71843;DHT22;59691;-36.632;-64.320;2023-02-26T04:52:19;26.80;42.00
71843;DHT22;59691;-36.632;-64.320;2023-02-26T04:54:45;26.80;42.10
71843;DHT22;59691;-36.632;-64.320;2023-02-26T04:57:11;26.80;42.10
71843;DHT22;59691;-36.632;-64.320;2023-02-26T04:59:38;26.80;42.10
71843;DHT22;59691;-36.632;-64.320;2023-02-26T05:02:04;26.80;42.10
71843;DHT22;59691;-36.632;-64.320;2023-02-26T05:04:31;26.70;42.00
71843;DHT22;59691;-36.632;-64.320;2023-02-26T05:06:57;26.70;42.00
71843;DHT22;59691;-36.632;-64.320;2023-02-26T05:09:24;26.70;42.00
71843;DHT22;59691;-36.632;-64.320;2023-02-26T05:11:50;26.70;42.00
71843;DHT22;59691;-36.632;-64.320;2023-02-26T05:14:16;26.70;42.00
71843;DHT22;59691;-36.632;-64.320;2023-02-26T05:16:43;26.60;41.90
71843;DHT22;59691;-36.632;-64.320;2023-02-26T05:19:09;26.60;41.90
71843;DHT22;59691;-36.632;-64.320;2023-02-26T05:21:36;26.60;41.90
71843;DHT22;59691;-36.632;-64.320;2023-02-26T05:24:02;26.60;41.90
71843;DHT22;59691;-36.632;-64.320;2023-02-26T05:26:29;26.60;41.90
71843;DHT22;59691;-36.632;-64.320;2023-02-26T05:28:55;26.60;41.90
71843;DHT22;59691;-36.632;-64.320;2023-02-26T05:31:22;26.60;41.90
71843;DHT22;59691;-36.632;-64.320;2023-02-26T05:33:48;26.60;41.90
71843;DHT22;59691;-36.632;-64.320;2023-02-26T05:36:15;26.60;41.90
71843;DHT22;59691;-36.632;-64.320;2023-02-26T05:38:41;26.60;41.90
71843;DHT22;59691;-36.632;-64.320;2023-02-26T05:41:08;26.50;41.80
71843;DHT22;59691;-36.632;-64.320;2023-02-26T05:43:34;26.60;41.90
71843;DHT22;59691;-36.632;-64.320;2023-02-26T05:46:01;26.50;41.80
71843;DHT22;59691;-36.632;-64.320;2023-02-26T05:48:27;26.50;41.80
71843;DHT22;59691;-36.632;-64.320;2023-02-26T05:50:54;26.50;41.80
71843;DHT22;59691;-36.632;-64.320;2023-02-26T05:53:20;26.50;41.80
71843;DHT22;59691;-36.632;-64.320;2023-02-26T05:55:47;26.50;41.80
71843;DHT22;59691;-36.632;-64.320;2023-02-26T05:58:13;26.40;41.70
71843;DHT22;59691;-36.632;-64.320;2023-02-26T06:00:40;26.40;41.70
71843;DHT22;59691;-36.632;-64.320;2023-02-26T06:03:06;26.40;41.80
71843;DHT22;59691;-36.632;-64.320;2023-02-26T06:05:33;26.40;41.80
71843;DHT22;59691;-36.632;-64.320;2023-02-26T06:08:01;26.40;41.70
71843;DHT22;59691;-36.632;-64.320;2023-02-26T06:10:27;26.40;41.80
71843;DHT22;59691;-36.632;-64.320;2023-02-26T06:12:54;26.40;41.80
71843;DHT22;59691;-36.632;-64.320;2023-02-26T06:15:20;26.40;41.80
71843;DHT22;59691;-36.632;-64.320;2023-02-26T06:17:47;26.30;41.70
71843;DHT22;59691;-36.632;-64.320;2023-02-26T06:20:13;26.30;41.70
71843;DHT22;59691;-36.632;-64.320;2023-02-26T06:22:40;26.30;41.70
71843;DHT22;59691;-36.632;-64.320;2023-02-26T06:25:06;26.30;41.70
71843;DHT22;59691;-36.632;-64.320;2023-02-26T06:27:33;26.30;41.70
71843;DHT22;59691;-36.632;-64.320;2023-02-26T06:29:59;26.30;41.70
71843;DHT22;59691;-36.632;-64.320;2023-02-26T06:32:26;26.20;41.60
71843;DHT22;59691;-36.632;-64.320;2023-02-26T06:34:52;26.30;41.70
71843;DHT22;59691;-36.632;-64.320;2023-02-26T06:37:19;26.30;41.70
71843;DHT22;59691;-36.632;-64.320;2023-02-26T06:39:45;26.30;41.70
71843;DHT22;59691;-36.632;-64.320;2023-02-26T06:42:11;26.20;41.70
71843;DHT22;59691;-36.632;-64.320;2023-02-26T06:44:38;26.20;41.70
71843;DHT22;59691;-36.632;-64.320;2023-02-26T06:47:04;26.20;41.60
71843;DHT22;59691;-36.632;-64.320;2023-02-26T06:49:31;26.20;41.70
71843;DHT22;59691;-36.632;-64.320;2023-02-26T06:51:57;26.20;41.60
71843;DHT22;59691;-36.632;-64.320;2023-02-26T06:54:23;26.20;41.70
71843;DHT22;59691;-36.632;-64.320;2023-02-26T06:56:50;26.20;41.70
71843;DHT22;59691;-36.632;-64.320;2023-02-26T06:59:17;26.20;41.70
71843;DHT22;59691;-36.632;-64.320;2023-02-26T07:01:43;26.20;41.70
71843;DHT22;59691;-36.632;-64.320;2023-02-26T07:04:10;26.20;41.70
71843;DHT22;59691;-36.632;-64.320;2023-02-26T07:06:36;26.20;41.70
71843;DHT22;59691;-36.632;-64.320;2023-02-26T07:09:03;26.10;41.60
71843;DHT22;59691;-36.632;-64.320;2023-02-26T07:11:29;26.20;41.70
71843;DHT22;59691;-36.632;-64.320;2023-02-26T07:13:56;26.10;41.70
71843;DHT22;59691;-36.632;-64.320;2023-02-26T07:16:22;26.10;41.70
71843;DHT22;59691;-36.632;-64.320;2023-02-26T07:18:48;26.10;41.70
71843;DHT22;59691;-36.632;-64.320;2023-02-26T07:21:15;26.10;41.70
71843;DHT22;59691;-36.632;-64.320;2023-02-26T07:23:41;26.00;41.60
71843;DHT22;59691;-36.632;-64.320;2023-02-26T07:26:08;26.10;41.70
71843;DHT22;59691;-36.632;-64.320;2023-02-26T07:28:34;26.00;41.60
71843;DHT22;59691;-36.632;-64.320;2023-02-26T07:31:00;26.00;41.60
71843;DHT22;59691;-36.632;-64.320;2023-02-26T07:33:27;26.00;41.60
71843;DHT22;59691;-36.632;-64.320;2023-02-26T07:35:53;26.00;41.60
71843;DHT22;59691;-36.632;-64.320;2023-02-26T07:38:20;26.00;41.60
71843;DHT22;59691;-36.632;-64.320;2023-02-26T07:40:46;25.90;41.60
71843;DHT22;59691;-36.632;-64.320;2023-02-26T07:43:13;25.90;41.50
71843;DHT22;59691;-36.632;-64.320;2023-02-26T07:45:39;25.90;41.50
71843;DHT22;59691;-36.632;-64.320;2023-02-26T07:48:05;25.90;41.60
71843;DHT22;59691;-36.632;-64.320;2023-02-26T07:50:32;25.90;41.50
71843;DHT22;59691;-36.632;-64.320;2023-02-26T07:52:58;25.90;41.50
71843;DHT22;59691;-36.632;-64.320;2023-02-26T07:55:25;25.90;41.60
71843;DHT22;59691;-36.632;-64.320;2023-02-26T07:57:52;25.90;41.60
71843;DHT22;59691;-36.632;-64.320;2023-02-26T08:00:18;25.80;41.50
71843;DHT22;59691;-36.632;-64.320;2023-02-26T08:02:45;25.80;41.50
71843;DHT22;59691;-36.632;-64.320;2023-02-26T08:05:12;25.80;41.50
71843;DHT22;59691;-36.632;-64.320;2023-02-26T08:07:38;25.80;41.50
71843;DHT22;59691;-36.632;-64.320;2023-02-26T08:10:05;25.80;41.50
71843;DHT22;59691;-36.632;-64.320;2023-02-26T08:12:31;25.80;41.50
71843;DHT22;59691;-36.632;-64.320;2023-02-26T08:14:58;25.80;41.50
71843;DHT22;59691;-36.632;-64.320;2023-02-26T08:17:24;25.80;41.40
71843;DHT22;59691;-36.632;-64.320;2023-02-26T08:19:51;25.70;41.30
71843;DHT22;59691;-36.632;-64.320;2023-02-26T08:22:18;25.70;41.40
71843;DHT22;59691;-36.632;-64.320;2023-02-26T08:24:45;25.70;41.40
71843;DHT22;59691;-36.632;-64.320;2023-02-26T08:27:11;25.70;41.30
71843;DHT22;59691;-36.632;-64.320;2023-02-26T08:29:38;25.70;41.30
71843;DHT22;59691;-36.632;-64.320;2023-02-26T08:32:04;25.70;41.40
71843;DHT22;59691;-36.632;-64.320;2023-02-26T08:34:30;25.60;41.30
71843;DHT22;59691;-36.632;-64.320;2023-02-26T08:36:57;25.60;41.30
71843;DHT22;59691;-36.632;-64.320;2023-02-26T08:39:23;25.60;41.30
71843;DHT22;59691;-36.632;-64.320;2023-02-26T08:41:50;25.60;41.30
71843;DHT22;59691;-36.632;-64.320;2023-02-26T08:44:16;25.60;41.30
71843;DHT22;59691;-36.632;-64.320;2023-02-26T08:46:43;25.60;41.30
71843;DHT22;59691;-36.632;-64.320;2023-02-26T08:49:09;25.60;41.30
71843;DHT22;59691;-36.632;-64.320;2023-02-26T08:51:36;25.60;41.30
71843;DHT22;59691;-36.632;-64.320;2023-02-26T08:54:02;25.60;41.30
71843;DHT22;59691;-36.632;-64.320;2023-02-26T08:56:28;25.50;41.20
71843;DHT22;59691;-36.632;-64.320;2023-02-26T08:58:56;25.50;41.20
71843;DHT22;59691;-36.632;-64.320;2023-02-26T09:01:23;25.50;41.20
71843;DHT22;59691;-36.632;-64.320;2023-02-26T09:03:49;25.50;41.20
71843;DHT22;59691;-36.632;-64.320;2023-02-26T09:06:15;25.40;41.20
71843;DHT22;59691;-36.632;-64.320;2023-02-26T09:08:42;25.50;41.30
71843;DHT22;59691;-36.632;-64.320;2023-02-26T09:11:08;25.40;41.10
71843;DHT22;59691;-36.632;-64.320;2023-02-26T09:13:35;25.40;41.10
71843;DHT22;59691;-36.632;-64.320;2023-02-26T09:16:01;25.40;41.20
71843;DHT22;59691;-36.632;-64.320;2023-02-26T09:18:28;25.40;41.00
71843;DHT22;59691;-36.632;-64.320;2023-02-26T09:20:54;25.30;41.10
71843;DHT22;59691;-36.632;-64.320;2023-02-26T09:23:20;25.40;41.10
71843;DHT22;59691;-36.632;-64.320;2023-02-26T09:25:51;25.30;41.10
71843;DHT22;59691;-36.632;-64.320;2023-02-26T09:28:18;25.30;41.10
71843;DHT22;59691;-36.632;-64.320;2023-02-26T09:30:45;25.30;41.10
71843;DHT22;59691;-36.632;-64.320;2023-02-26T09:33:11;25.30;41.10
71843;DHT22;59691;-36.632;-64.320;2023-02-26T09:35:37;25.20;41.00
71843;DHT22;59691;-36.632;-64.320;2023-02-26T09:38:04;25.20;41.00
71843;DHT22;59691;-36.632;-64.320;2023-02-26T09:45:39;25.20;41.00
71843;DHT22;59691;-36.632;-64.320;2023-02-26T09:48:07;25.20;41.00
71843;DHT22;59691;-36.632;-64.320;2023-02-26T09:50:49;25.10;41.00
71843;DHT22;59691;-36.632;-64.320;2023-02-26T09:53:19;25.10;41.00
71843;DHT22;59691;-36.632;-64.320;2023-02-26T09:55:48;25.10;41.00
71843;DHT22;59691;-36.632;-64.320;2023-02-26T09:58:29;25.10;41.00
71843;DHT22;59691;-36.632;-64.320;2023-02-26T10:04:00;25.10;41.10
71843;DHT22;59691;-36.632;-64.320;2023-02-26T10:16:36;25.00;41.10
71843;DHT22;59691;-36.632;-64.320;2023-02-26T10:19:09;24.90;41.10
71843;DHT22;59691;-36.632;-64.320;2023-02-26T10:21:56;24.90;41.00
71843;DHT22;59691;-36.632;-64.320;2023-02-26T10:24:25;25.00;41.10
71843;DHT22;59691;-36.632;-64.320;2023-02-26T10:26:54;24.90;41.00
71843;DHT22;59691;-36.632;-64.320;2023-02-26T10:29:36;24.90;41.00
71843;DHT22;59691;-36.632;-64.320;2023-02-26T10:32:16;24.90;41.10
71843;DHT22;59691;-36.632;-64.320;2023-02-26T10:42:28;24.90;41.20
71843;DHT22;59691;-36.632;-64.320;2023-02-26T10:44:59;24.90;41.10
71843;DHT22;59691;-36.632;-64.320;2023-02-26T10:50:04;24.90;41.20
71843;DHT22;59691;-36.632;-64.320;2023-02-26T10:52:32;24.80;41.10
71843;DHT22;59691;-36.632;-64.320;2023-02-26T10:57:29;24.80;41.10
71843;DHT22;59691;-36.632;-64.320;2023-02-26T11:02:45;24.80;41.10
71843;DHT22;59691;-36.632;-64.320;2023-02-26T11:07:44;24.80;41.20
71843;DHT22;59691;-36.632;-64.320;2023-02-26T11:10:19;24.80;41.20
71843;DHT22;59691;-36.632;-64.320;2023-02-26T11:12:46;24.80;41.20
71843;DHT22;59691;-36.632;-64.320;2023-02-26T11:15:22;24.80;41.20
71843;DHT22;59691;-36.632;-64.320;2023-02-26T11:17:52;24.80;41.20
71843;DHT22;59691;-36.632;-64.320;2023-02-26T11:22:49;24.80;41.10
71843;DHT22;59691;-36.632;-64.320;2023-02-26T11:25:19;24.90;41.10
71843;DHT22;59691;-36.632;-64.320;2023-02-26T11:27:48;24.80;41.00
71843;DHT22;59691;-36.632;-64.320;2023-02-26T11:30:16;24.90;41.00
71843;DHT22;59691;-36.632;-64.320;2023-02-26T11:32:44;24.90;41.00
71843;DHT22;59691;-36.632;-64.320;2023-02-26T11:35:12;24.90;40.90
71843;DHT22;59691;-36.632;-64.320;2023-02-26T11:37:40;24.90;40.80
71843;DHT22;59691;-36.632;-64.320;2023-02-26T11:40:17;24.90;40.80
71843;DHT22;59691;-36.632;-64.320;2023-02-26T11:42:47;24.90;40.80
71843;DHT22;59691;-36.632;-64.320;2023-02-26T11:45:15;24.90;40.70
71843;DHT22;59691;-36.632;-64.320;2023-02-26T11:47:42;24.90;40.70
71843;DHT22;59691;-36.632;-64.320;2023-02-26T11:50:17;24.90;40.60
71843;DHT22;59691;-36.632;-64.320;2023-02-26T11:52:45;25.00;40.70
71843;DHT22;59691;-36.632;-64.320;2023-02-26T11:55:20;25.00;40.60
71843;DHT22;59691;-36.632;-64.320;2023-02-26T11:57:50;25.00;40.60
71843;DHT22;59691;-36.632;-64.320;2023-02-26T12:00:36;25.00;40.60
71843;DHT22;59691;-36.632;-64.320;2023-02-26T12:03:04;25.00;40.50
71843;DHT22;59691;-36.632;-64.320;2023-02-26T12:05:32;25.00;40.40
71843;DHT22;59691;-36.632;-64.320;2023-02-26T12:08:00;25.00;40.40
71843;DHT22;59691;-36.632;-64.320;2023-02-26T12:10:50;25.00;40.40
71843;DHT22;59691;-36.632;-64.320;2023-02-26T12:13:20;25.00;40.40
71843;DHT22;59691;-36.632;-64.320;2023-02-26T12:18:53;25.10;40.30
71843;DHT22;59691;-36.632;-64.320;2023-02-26T12:21:49;25.10;40.30
71843;DHT22;59691;-36.632;-64.320;2023-02-26T12:24:35;25.10;40.30
71843;DHT22;59691;-36.632;-64.320;2023-02-26T12:27:12;25.10;40.30
71843;DHT22;59691;-36.632;-64.320;2023-02-26T12:32:32;25.20;40.30
71843;DHT22;59691;-36.632;-64.320;2023-02-26T12:35:25;25.10;40.20
71843;DHT22;59691;-36.632;-64.320;2023-02-26T12:40:21;25.20;40.20
71843;DHT22;59691;-36.632;-64.320;2023-02-26T12:42:59;25.20;40.20
71843;DHT22;59691;-36.632;-64.320;2023-02-26T12:45:38;25.20;40.10
71843;DHT22;59691;-36.632;-64.320;2023-02-26T12:48:13;25.20;40.10
71843;DHT22;59691;-36.632;-64.320;2023-02-26T13:01:30;25.20;40.10
71843;DHT22;59691;-36.632;-64.320;2023-02-26T13:21:50;25.30;39.80
71843;DHT22;59691;-36.632;-64.320;2023-02-26T13:24:26;25.30;39.80
71843;DHT22;59691;-36.632;-64.320;2023-02-26T13:26:55;25.30;39.70
71843;DHT22;59691;-36.632;-64.320;2023-02-26T13:32:23;25.30;39.70
71843;DHT22;59691;-36.632;-64.320;2023-02-26T13:34:58;25.30;39.70
71843;DHT22;59691;-36.632;-64.320;2023-02-26T13:40:22;25.30;39.70
71843;DHT22;59691;-36.632;-64.320;2023-02-26T13:42:47;25.30;39.60
71843;DHT22;59691;-36.632;-64.320;2023-02-26T13:55:40;25.40;39.70
71843;DHT22;59691;-36.632;-64.320;2023-02-26T14:00:58;25.40;39.60
71843;DHT22;59691;-36.632;-64.320;2023-02-26T14:03:30;25.40;39.60
71843;DHT22;59691;-36.632;-64.320;2023-02-26T14:08:55;25.40;39.50
71843;DHT22;59691;-36.632;-64.320;2023-02-26T14:11:24;25.40;39.50
71843;DHT22;59691;-36.632;-64.320;2023-02-26T14:14:09;25.40;39.40
71843;DHT22;59691;-36.632;-64.320;2023-02-26T14:16:37;25.50;39.40
71843;DHT22;59691;-36.632;-64.320;2023-02-26T14:21:53;25.50;39.40
71843;DHT22;59691;-36.632;-64.320;2023-02-26T14:24:31;25.50;39.30
71843;DHT22;59691;-36.632;-64.320;2023-02-26T14:29:40;25.50;39.30
71843;DHT22;59691;-36.632;-64.320;2023-02-26T14:34:51;25.60;39.40
71843;DHT22;59691;-36.632;-64.320;2023-02-26T14:37:21;25.60;39.40
71843;DHT22;59691;-36.632;-64.320;2023-02-26T14:39:58;25.60;39.40
71843;DHT22;59691;-36.632;-64.320;2023-02-26T14:42:31;25.50;39.30
71843;DHT22;59691;-36.632;-64.320;2023-02-26T14:47:25;25.60;39.30
71843;DHT22;59691;-36.632;-64.320;2023-02-26T14:49:51;25.60;39.30
71843;DHT22;59691;-36.632;-64.320;2023-02-26T14:52:30;25.60;39.30
71843;DHT22;59691;-36.632;-64.320;2023-02-26T15:05:37;25.60;39.30
71843;DHT22;59691;-36.632;-64.320;2023-02-26T15:10:42;25.60;39.30
71843;DHT22;59691;-36.632;-64.320;2023-02-26T15:13:17;25.70;39.30
71843;DHT22;59691;-36.632;-64.320;2023-02-26T15:15:53;25.70;39.30
71843;DHT22;59691;-36.632;-64.320;2023-02-26T15:18:41;25.70;39.30
71843;DHT22;59691;-36.632;-64.320;2023-02-26T15:23:56;25.70;39.30
71843;DHT22;59691;-36.632;-64.320;2023-02-26T15:26:24;25.70;39.30
71843;DHT22;59691;-36.632;-64.320;2023-02-26T15:28:52;25.70;39.20
71843;DHT22;59691;-36.632;-64.320;2023-02-26T15:31:20;25.80;39.30
71843;DHT22;59691;-36.632;-64.320;2023-02-26T15:33:47;25.80;39.30
71843;DHT22;59691;-36.632;-64.320;2023-02-26T15:36:15;25.80;39.30
71843;DHT22;59691;-36.632;-64.320;2023-02-26T15:38:44;25.80;39.20
71843;DHT22;59691;-36.632;-64.320;2023-02-26T15:41:11;25.80;39.20
71843;DHT22;59691;-36.632;-64.320;2023-02-26T15:43:39;25.90;39.30
71843;DHT22;59691;-36.632;-64.320;2023-02-26T15:46:07;25.90;39.30
71843;DHT22;59691;-36.632;-64.320;2023-02-26T15:48:35;25.90;39.20
71843;DHT22;59691;-36.632;-64.320;2023-02-26T15:51:07;25.90;39.20
71843;DHT22;59691;-36.632;-64.320;2023-02-26T15:53:44;25.90;39.20
71843;DHT22;59691;-36.632;-64.320;2023-02-26T15:56:14;25.90;39.20
71843;DHT22;59691;-36.632;-64.320;2023-02-26T16:01:26;25.90;39.10
71843;DHT22;59691;-36.632;-64.320;2023-02-26T16:03:56;25.90;39.10
71843;DHT22;59691;-36.632;-64.320;2023-02-26T16:06:23;26.00;39.20
71843;DHT22;59691;-36.632;-64.320;2023-02-26T16:08:50;26.00;39.20
71843;DHT22;59691;-36.632;-64.320;2023-02-26T16:11:17;26.00;39.10
71843;DHT22;59691;-36.632;-64.320;2023-02-26T16:13:43;26.00;39.10
71843;DHT22;59691;-36.632;-64.320;2023-02-26T16:16:15;26.10;39.10
71843;DHT22;59691;-36.632;-64.320;2023-02-26T16:18:42;26.10;39.10
71843;DHT22;59691;-36.632;-64.320;2023-02-26T16:21:11;26.10;39.10
71843;DHT22;59691;-36.632;-64.320;2023-02-26T16:23:42;26.10;39.00
71843;DHT22;59691;-36.632;-64.320;2023-02-26T16:29:06;26.20;39.00
71843;DHT22;59691;-36.632;-64.320;2023-02-26T16:31:35;26.20;39.00
71843;DHT22;59691;-36.632;-64.320;2023-02-26T16:34:03;26.20;38.90
71843;DHT22;59691;-36.632;-64.320;2023-02-26T16:36:38;26.20;38.90
71843;DHT22;59691;-36.632;-64.320;2023-02-26T16:41:34;26.30;38.90
71843;DHT22;59691;-36.632;-64.320;2023-02-26T16:44:44;26.30;38.90
71843;DHT22;59691;-36.632;-64.320;2023-02-26T16:46:51;26.40;38.90
71843;DHT22;59691;-36.632;-64.320;2023-02-26T16:49:24;26.40;38.90
71843;DHT22;59691;-36.632;-64.320;2023-02-26T16:51:51;26.40;38.80
71843;DHT22;59691;-36.632;-64.320;2023-02-26T16:54:22;26.40;38.70
71843;DHT22;59691;-36.632;-64.320;2023-02-26T16:56:56;26.40;38.70
71843;DHT22;59691;-36.632;-64.320;2023-02-26T16:59:24;26.50;38.70
71843;DHT22;59691;-36.632;-64.320;2023-02-26T17:04:18;26.50;38.60
71843;DHT22;59691;-36.632;-64.320;2023-02-26T17:06:45;26.50;38.50
71843;DHT22;59691;-36.632;-64.320;2023-02-26T17:11:50;26.60;38.40
71843;DHT22;59691;-36.632;-64.320;2023-02-26T17:14:27;26.60;38.30
71843;DHT22;59691;-36.632;-64.320;2023-02-26T17:16:56;26.70;38.40
71843;DHT22;59691;-36.632;-64.320;2023-02-26T17:19:22;26.70;38.30
71843;DHT22;59691;-36.632;-64.320;2023-02-26T17:21:51;26.70;38.30
71843;DHT22;59691;-36.632;-64.320;2023-02-26T17:24:40;26.80;38.30
71843;DHT22;59691;-36.632;-64.320;2023-02-26T17:27:06;26.80;38.20
71843;DHT22;59691;-36.632;-64.320;2023-02-26T17:29:34;26.90;38.20
71843;DHT22;59691;-36.632;-64.320;2023-02-26T17:32:05;26.90;38.20
71843;DHT22;59691;-36.632;-64.320;2023-02-26T17:34:32;26.90;38.10
71843;DHT22;59691;-36.632;-64.320;2023-02-26T17:36:58;26.90;38.00
71843;DHT22;59691;-36.632;-64.320;2023-02-26T17:39:30;26.90;38.00
71843;DHT22;59691;-36.632;-64.320;2023-02-26T17:41:56;27.00;38.00
71843;DHT22;59691;-36.632;-64.320;2023-02-26T17:44:23;27.00;38.00
71843;DHT22;59691;-36.632;-64.320;2023-02-26T17:46:49;27.00;37.90
71843;DHT22;59691;-36.632;-64.320;2023-02-26T17:49:16;27.10;37.90
71843;DHT22;59691;-36.632;-64.320;2023-02-26T17:51:42;27.10;37.90
71843;DHT22;59691;-36.632;-64.320;2023-02-26T17:54:08;27.10;37.90
71843;DHT22;59691;-36.632;-64.320;2023-02-26T17:56:35;27.20;38.00
71843;DHT22;59691;-36.632;-64.320;2023-02-26T17:59:02;27.20;38.00
71843;DHT22;59691;-36.632;-64.320;2023-02-26T18:01:29;27.20;38.00
71843;DHT22;59691;-36.632;-64.320;2023-02-26T18:03:56;27.20;37.80
71843;DHT22;59691;-36.632;-64.320;2023-02-26T18:06:23;27.20;37.80
71843;DHT22;59691;-36.632;-64.320;2023-02-26T18:08:49;27.30;37.80
71843;DHT22;59691;-36.632;-64.320;2023-02-26T18:11:16;27.30;37.70